sensor_id;sensor_type;location;lat;lon;timestamp;temperature;humidity
8858;DHT22;4465;50.904;4.696;2023-07-31T00:02:15;16.50;99.90
8858;DHT22;4465;50.904;4.696;2023-07-31T00:04:40;16.50;99.90
8858;DHT22;4465;50.904;4.696;2023-07-31T00:07:06;16.50;99.90
8858;DHT22;4465;50.904;4.696;2023-07-31T00:09:33;16.50;99.90
8858;DHT22;4465;50.904;4.696;2023-07-31T00:12:02;16.50;99.90
8858;DHT22;4465;50.904;4.696;2023-07-31T00:14:28;16.60;99.90
8858;DHT22;4465;50.904;4.696;2023-07-31T00:16:54;16.60;99.90
8858;DHT22;4465;50.904;4.696;2023-07-31T00:19:22;16.50;99.90
8858;DHT22;4465;50.904;4.696;2023-07-31T00:21:50;16.60;99.90
8858;DHT22;4465;50.904;4.696;2023-07-31T00:24:19;16.60;99.90
8858;DHT22;4465;50.904;4.696;2023-07-31T00:26:45;16.60;99.90
8858;DHT22;4465;50.904;4.696;2023-07-31T00:29:11;16.60;99.90
8858;DHT22;4465;50.904;4.696;2023-07-31T00:31:39;16.60;99.90
8858;DHT22;4465;50.904;4.696;2023-07-31T00:34:04;16.60;99.90
8858;DHT22;4465;50.904;4.696;2023-07-31T00:36:30;16.70;99.90
8858;DHT22;4465;50.904;4.696;2023-07-31T00:38:56;16.70;99.90
8858;DHT22;4465;50.904;4.696;2023-07-31T00:41:22;16.70;99.90
8858;DHT22;4465;50.904;4.696;2023-07-31T00:43:48;16.70;99.90
8858;DHT22;4465;50.904;4.696;2023-07-31T00:46:19;16.70;99.90
8858;DHT22;4465;50.904;4.696;2023-07-31T00:48:45;16.80;99.90
8858;DHT22;4465;50.904;4.696;2023-07-31T00:51:14;16.80;99.90
8858;DHT22;4465;50.904;4.696;2023-07-31T00:53:40;16.80;99.90
8858;DHT22;4465;50.904;4.696;2023-07-31T00:56:09;16.80;99.90
8858;DHT22;4465;50.904;4.696;2023-07-31T00:58:36;16.80;99.90
8858;DHT22;4465;50.904;4.696;2023-07-31T01:01:02;16.90;99.90
8858;DHT22;4465;50.904;4.696;2023-07-31T01:03:30;16.90;99.90
8858;DHT22;4465;50.904;4.696;2023-07-31T01:09:00;16.90;99.90
8858;DHT22;4465;50.904;4.696;2023-07-31T01:11:38;16.90;99.90
8858;DHT22;4465;50.904;4.696;2023-07-31T01:14:05;16.90;99.90
8858;DHT22;4465;50.904;4.696;2023-07-31T01:16:33;16.90;99.90
8858;DHT22;4465;50.904;4.696;2023-07-31T01:18:59;17.00;99.90
8858;DHT22;4465;50.904;4.696;2023-07-31T01:27:10;17.00;99.90
8858;DHT22;4465;50.904;4.696;2023-07-31T01:32:11;17.00;99.90
8858;DHT22;4465;50.904;4.696;2023-07-31T01:34:41;17.00;99.90
8858;DHT22;4465;50.904;4.696;2023-07-31T01:37:08;17.00;99.90
8858;DHT22;4465;50.904;4.696;2023-07-31T01:39:34;17.00;99.90
8858;DHT22;4465;50.904;4.696;2023-07-31T01:42:00;17.00;99.90
8858;DHT22;4465;50.904;4.696;2023-07-31T01:44:28;17.00;99.90
8858;DHT22;4465;50.904;4.696;2023-07-31T01:46:56;17.00;99.90
8858;DHT22;4465;50.904;4.696;2023-07-31T01:49:22;17.10;99.90
8858;DHT22;4465;50.904;4.696;2023-07-31T01:51:48;17.00;99.90
8858;DHT22;4465;50.904;4.696;2023-07-31T01:54:14;17.00;99.90
8858;DHT22;4465;50.904;4.696;2023-07-31T01:56:40;17.00;99.90
8858;DHT22;4465;50.904;4.696;2023-07-31T01:59:05;17.10;99.90
8858;DHT22;4465;50.904;4.696;2023-07-31T02:01:34;17.10;99.90
8858;DHT22;4465;50.904;4.696;2023-07-31T02:04:00;17.10;99.90
8858;DHT22;4465;50.904;4.696;2023-07-31T02:06:29;17.10;99.90
8858;DHT22;4465;50.904;4.696;2023-07-31T02:08:54;17.10;99.90
8858;DHT22;4465;50.904;4.696;2023-07-31T02:11:20;17.10;99.90
8858;DHT22;4465;50.904;4.696;2023-07-31T02:13:48;17.10;99.90
8858;DHT22;4465;50.904;4.696;2023-07-31T02:16:17;17.10;99.90
8858;DHT22;4465;50.904;4.696;2023-07-31T02:18:42;17.10;99.90
8858;DHT22;4465;50.904;4.696;2023-07-31T02:21:11;17.10;99.90
8858;DHT22;4465;50.904;4.696;2023-07-31T02:23:38;17.10;99.90
8858;DHT22;4465;50.904;4.696;2023-07-31T02:26:07;17.10;99.90
8858;DHT22;4465;50.904;4.696;2023-07-31T02:28:33;17.10;99.90
8858;DHT22;4465;50.904;4.696;2023-07-31T02:30:58;17.10;99.90
8858;DHT22;4465;50.904;4.696;2023-07-31T02:33:24;17.10;99.90
8858;DHT22;4465;50.904;4.696;2023-07-31T02:35:50;17.20;99.90
8858;DHT22;4465;50.904;4.696;2023-07-31T02:38:16;17.20;99.90
8858;DHT22;4465;50.904;4.696;2023-07-31T02:40:44;17.20;99.90
8858;DHT22;4465;50.904;4.696;2023-07-31T02:43:13;17.20;99.90
8858;DHT22;4465;50.904;4.696;2023-07-31T02:45:39;17.20;99.90
8858;DHT22;4465;50.904;4.696;2023-07-31T02:48:05;17.10;99.90
8858;DHT22;4465;50.904;4.696;2023-07-31T02:50:32;17.20;99.90
8858;DHT22;4465;50.904;4.696;2023-07-31T02:53:00;17.20;99.90
8858;DHT22;4465;50.904;4.696;2023-07-31T02:55:26;17.20;99.90
8858;DHT22;4465;50.904;4.696;2023-07-31T02:57:56;17.20;99.90
8858;DHT22;4465;50.904;4.696;2023-07-31T03:00:26;17.20;99.90
8858;DHT22;4465;50.904;4.696;2023-07-31T03:02:52;17.20;99.90
8858;DHT22;4465;50.904;4.696;2023-07-31T03:05:18;17.20;99.90
8858;DHT22;4465;50.904;4.696;2023-07-31T03:07:44;17.20;99.90
8858;DHT22;4465;50.904;4.696;2023-07-31T03:10:10;17.20;99.90
8858;DHT22;4465;50.904;4.696;2023-07-31T03:12:38;17.20;99.90
8858;DHT22;4465;50.904;4.696;2023-07-31T03:15:04;17.20;99.90
8858;DHT22;4465;50.904;4.696;2023-07-31T03:17:30;17.20;99.90
8858;DHT22;4465;50.904;4.696;2023-07-31T03:19:56;17.20;99.90
8858;DHT22;4465;50.904;4.696;2023-07-31T03:22:22;17.30;99.90
8858;DHT22;4465;50.904;4.696;2023-07-31T03:24:48;17.20;99.90
8858;DHT22;4465;50.904;4.696;2023-07-31T03:27:14;17.30;99.90
8858;DHT22;4465;50.904;4.696;2023-07-31T03:29:39;17.30;99.90
8858;DHT22;4465;50.904;4.696;2023-07-31T03:32:08;17.30;99.90
8858;DHT22;4465;50.904;4.696;2023-07-31T03:34:34;17.30;99.90
8858;DHT22;4465;50.904;4.696;2023-07-31T03:37:02;17.30;99.90
8858;DHT22;4465;50.904;4.696;2023-07-31T03:39:28;17.30;99.90
8858;DHT22;4465;50.904;4.696;2023-07-31T03:41:54;17.30;99.90
8858;DHT22;4465;50.904;4.696;2023-07-31T03:44:22;17.30;99.90
8858;DHT22;4465;50.904;4.696;2023-07-31T03:46:48;17.30;99.90
8858;DHT22;4465;50.904;4.696;2023-07-31T03:49:14;17.30;99.90
8858;DHT22;4465;50.904;4.696;2023-07-31T03:51:40;17.30;99.90
8858;DHT22;4465;50.904;4.696;2023-07-31T03:54:07;17.30;99.90
8858;DHT22;4465;50.904;4.696;2023-07-31T03:56:33;17.30;99.90
8858;DHT22;4465;50.904;4.696;2023-07-31T03:59:06;17.30;99.90
8858;DHT22;4465;50.904;4.696;2023-07-31T04:01:32;17.30;99.90
8858;DHT22;4465;50.904;4.696;2023-07-31T04:04:00;17.30;99.90
8858;DHT22;4465;50.904;4.696;2023-07-31T04:06:29;17.30;99.90
8858;DHT22;4465;50.904;4.696;2023-07-31T04:08:55;17.30;99.90
8858;DHT22;4465;50.904;4.696;2023-07-31T04:11:21;17.30;99.90
8858;DHT22;4465;50.904;4.696;2023-07-31T04:13:49;17.20;99.90
8858;DHT22;4465;50.904;4.696;2023-07-31T04:16:14;17.20;99.90
8858;DHT22;4465;50.904;4.696;2023-07-31T04:18:41;17.20;99.90
8858;DHT22;4465;50.904;4.696;2023-07-31T04:21:09;17.20;99.90
8858;DHT22;4465;50.904;4.696;2023-07-31T04:23:35;17.20;99.90
8858;DHT22;4465;50.904;4.696;2023-07-31T04:26:01;17.10;99.90
8858;DHT22;4465;50.904;4.696;2023-07-31T04:28:29;17.10;99.90
8858;DHT22;4465;50.904;4.696;2023-07-31T04:30:59;17.10;99.90
8858;DHT22;4465;50.904;4.696;2023-07-31T04:33:25;17.10;99.90
8858;DHT22;4465;50.904;4.696;2023-07-31T04:35:52;17.00;99.90
8858;DHT22;4465;50.904;4.696;2023-07-31T04:38:19;17.00;99.90
8858;DHT22;4465;50.904;4.696;2023-07-31T04:40:45;17.00;99.90
8858;DHT22;4465;50.904;4.696;2023-07-31T04:43:14;17.00;99.90
8858;DHT22;4465;50.904;4.696;2023-07-31T04:45:45;17.00;99.90
8858;DHT22;4465;50.904;4.696;2023-07-31T04:48:12;16.90;99.90
8858;DHT22;4465;50.904;4.696;2023-07-31T04:50:38;16.90;99.90
8858;DHT22;4465;50.904;4.696;2023-07-31T04:53:04;16.90;99.90
8858;DHT22;4465;50.904;4.696;2023-07-31T04:55:30;16.90;99.90
8858;DHT22;4465;50.904;4.696;2023-07-31T04:57:58;16.90;99.90
8858;DHT22;4465;50.904;4.696;2023-07-31T05:00:24;16.90;99.90
8858;DHT22;4465;50.904;4.696;2023-07-31T05:02:50;16.90;99.90
8858;DHT22;4465;50.904;4.696;2023-07-31T05:05:18;16.90;99.90
8858;DHT22;4465;50.904;4.696;2023-07-31T05:07:44;16.90;99.90
8858;DHT22;4465;50.904;4.696;2023-07-31T05:10:10;16.90;99.90
8858;DHT22;4465;50.904;4.696;2023-07-31T05:12:36;16.90;99.90
8858;DHT22;4465;50.904;4.696;2023-07-31T05:15:04;16.90;99.90
8858;DHT22;4465;50.904;4.696;2023-07-31T05:17:31;16.90;99.90
8858;DHT22;4465;50.904;4.696;2023-07-31T05:19:59;16.90;99.90
8858;DHT22;4465;50.904;4.696;2023-07-31T05:22:25;16.90;99.90
8858;DHT22;4465;50.904;4.696;2023-07-31T05:24:58;16.90;99.90
8858;DHT22;4465;50.904;4.696;2023-07-31T05:27:24;16.90;99.90
8858;DHT22;4465;50.904;4.696;2023-07-31T05:29:49;16.90;99.90
8858;DHT22;4465;50.904;4.696;2023-07-31T05:32:18;16.90;99.90
8858;DHT22;4465;50.904;4.696;2023-07-31T05:34:43;16.90;99.90
8858;DHT22;4465;50.904;4.696;2023-07-31T05:37:14;16.90;99.90
8858;DHT22;4465;50.904;4.696;2023-07-31T05:39:40;16.90;99.90
8858;DHT22;4465;50.904;4.696;2023-07-31T05:42:06;16.90;99.90
8858;DHT22;4465;50.904;4.696;2023-07-31T05:44:32;16.80;99.90
8858;DHT22;4465;50.904;4.696;2023-07-31T05:46:58;16.80;99.90
8858;DHT22;4465;50.904;4.696;2023-07-31T05:49:24;16.80;99.90
8858;DHT22;4465;50.904;4.696;2023-07-31T05:51:50;16.80;99.90
8858;DHT22;4465;50.904;4.696;2023-07-31T05:54:19;16.80;99.90
8858;DHT22;4465;50.904;4.696;2023-07-31T05:56:47;16.80;99.90
8858;DHT22;4465;50.904;4.696;2023-07-31T05:59:13;16.80;99.90
8858;DHT22;4465;50.904;4.696;2023-07-31T06:01:42;16.70;99.90
8858;DHT22;4465;50.904;4.696;2023-07-31T06:04:08;16.70;99.90
8858;DHT22;4465;50.904;4.696;2023-07-31T06:06:36;16.70;99.90
8858;DHT22;4465;50.904;4.696;2023-07-31T06:09:04;16.70;99.90
8858;DHT22;4465;50.904;4.696;2023-07-31T06:11:33;16.60;99.90
8858;DHT22;4465;50.904;4.696;2023-07-31T06:13:59;16.60;99.90
8858;DHT22;4465;50.904;4.696;2023-07-31T06:16:25;16.60;99.90
8858;DHT22;4465;50.904;4.696;2023-07-31T06:18:52;16.60;99.90
8858;DHT22;4465;50.904;4.696;2023-07-31T06:21:18;16.60;99.90
8858;DHT22;4465;50.904;4.696;2023-07-31T06:23:44;16.60;99.90
8858;DHT22;4465;50.904;4.696;2023-07-31T06:26:10;16.60;99.90
8858;DHT22;4465;50.904;4.696;2023-07-31T06:28:36;16.60;99.90
8858;DHT22;4465;50.904;4.696;2023-07-31T06:31:04;16.60;99.90
8858;DHT22;4465;50.904;4.696;2023-07-31T06:33:30;16.60;99.90
8858;DHT22;4465;50.904;4.696;2023-07-31T06:35:59;16.60;99.90
8858;DHT22;4465;50.904;4.696;2023-07-31T06:38:30;16.60;99.90
8858;DHT22;4465;50.904;4.696;2023-07-31T06:40:56;16.60;99.90
8858;DHT22;4465;50.904;4.696;2023-07-31T06:43:24;16.60;99.90
8858;DHT22;4465;50.904;4.696;2023-07-31T06:45:50;16.60;99.90
8858;DHT22;4465;50.904;4.696;2023-07-31T06:48:19;16.60;99.90
8858;DHT22;4465;50.904;4.696;2023-07-31T06:50:45;16.60;99.90
8858;DHT22;4465;50.904;4.696;2023-07-31T06:53:11;16.60;99.90
8858;DHT22;4465;50.904;4.696;2023-07-31T06:55:39;16.60;99.90
8858;DHT22;4465;50.904;4.696;2023-07-31T06:58:05;16.60;99.90
8858;DHT22;4465;50.904;4.696;2023-07-31T07:00:31;16.60;99.90
8858;DHT22;4465;50.904;4.696;2023-07-31T07:02:58;16.60;99.90
8858;DHT22;4465;50.904;4.696;2023-07-31T07:05:28;16.60;99.90
8858;DHT22;4465;50.904;4.696;2023-07-31T07:07:56;16.70;99.90
8858;DHT22;4465;50.904;4.696;2023-07-31T07:10:24;16.70;99.90
8858;DHT22;4465;50.904;4.696;2023-07-31T07:12:50;16.70;99.90
8858;DHT22;4465;50.904;4.696;2023-07-31T07:15:16;16.80;99.90
8858;DHT22;4465;50.904;4.696;2023-07-31T07:17:42;16.80;99.90
8858;DHT22;4465;50.904;4.696;2023-07-31T07:20:08;16.80;99.90
8858;DHT22;4465;50.904;4.696;2023-07-31T07:22:40;16.90;99.90
8858;DHT22;4465;50.904;4.696;2023-07-31T07:25:11;16.90;99.90
8858;DHT22;4465;50.904;4.696;2023-07-31T07:27:36;16.90;99.90
8858;DHT22;4465;50.904;4.696;2023-07-31T07:30:03;16.90;99.90
8858;DHT22;4465;50.904;4.696;2023-07-31T07:32:29;17.00;99.90
8858;DHT22;4465;50.904;4.696;2023-07-31T07:34:57;17.00;99.90
8858;DHT22;4465;50.904;4.696;2023-07-31T07:37:29;17.10;99.90
8858;DHT22;4465;50.904;4.696;2023-07-31T07:39:57;17.10;99.90
8858;DHT22;4465;50.904;4.696;2023-07-31T07:42:23;17.10;99.90
8858;DHT22;4465;50.904;4.696;2023-07-31T07:44:49;17.10;99.90
8858;DHT22;4465;50.904;4.696;2023-07-31T07:47:15;17.20;99.90
8858;DHT22;4465;50.904;4.696;2023-07-31T07:49:41;17.20;99.90
8858;DHT22;4465;50.904;4.696;2023-07-31T07:52:09;17.20;99.90
8858;DHT22;4465;50.904;4.696;2023-07-31T07:54:35;17.20;99.90
8858;DHT22;4465;50.904;4.696;2023-07-31T07:57:01;17.20;99.90
8858;DHT22;4465;50.904;4.696;2023-07-31T07:59:27;17.20;99.90
8858;DHT22;4465;50.904;4.696;2023-07-31T08:01:53;17.20;99.90
8858;DHT22;4465;50.904;4.696;2023-07-31T08:04:21;17.20;99.90
8858;DHT22;4465;50.904;4.696;2023-07-31T08:06:47;17.20;99.90
8858;DHT22;4465;50.904;4.696;2023-07-31T08:09:12;17.30;99.90
8858;DHT22;4465;50.904;4.696;2023-07-31T08:11:38;17.30;99.90
8858;DHT22;4465;50.904;4.696;2023-07-31T08:14:04;17.30;99.90
8858;DHT22;4465;50.904;4.696;2023-07-31T08:16:30;17.30;99.90
8858;DHT22;4465;50.904;4.696;2023-07-31T08:18:58;17.40;99.90
8858;DHT22;4465;50.904;4.696;2023-07-31T08:21:24;17.40;99.90
8858;DHT22;4465;50.904;4.696;2023-07-31T08:23:50;17.40;99.90
8858;DHT22;4465;50.904;4.696;2023-07-31T08:26:17;17.40;99.90
8858;DHT22;4465;50.904;4.696;2023-07-31T08:28:43;17.40;99.90
8858;DHT22;4465;50.904;4.696;2023-07-31T08:31:09;17.50;99.90
8858;DHT22;4465;50.904;4.696;2023-07-31T08:33:34;17.50;99.90
8858;DHT22;4465;50.904;4.696;2023-07-31T08:36:00;17.60;99.90
8858;DHT22;4465;50.904;4.696;2023-07-31T08:38:29;17.50;99.90
8858;DHT22;4465;50.904;4.696;2023-07-31T08:40:57;17.60;99.90
8858;DHT22;4465;50.904;4.696;2023-07-31T08:43:28;17.60;99.90
8858;DHT22;4465;50.904;4.696;2023-07-31T08:45:55;17.60;99.90
8858;DHT22;4465;50.904;4.696;2023-07-31T08:48:23;17.70;99.90
8858;DHT22;4465;50.904;4.696;2023-07-31T08:50:51;17.70;99.90
8858;DHT22;4465;50.904;4.696;2023-07-31T08:53:18;17.70;99.90
8858;DHT22;4465;50.904;4.696;2023-07-31T08:55:44;17.70;99.90
8858;DHT22;4465;50.904;4.696;2023-07-31T08:58:15;17.70;99.90
8858;DHT22;4465;50.904;4.696;2023-07-31T09:00:42;17.70;99.90
8858;DHT22;4465;50.904;4.696;2023-07-31T09:03:13;17.70;99.90
8858;DHT22;4465;50.904;4.696;2023-07-31T09:05:45;17.70;99.90
8858;DHT22;4465;50.904;4.696;2023-07-31T09:08:13;17.70;99.90
8858;DHT22;4465;50.904;4.696;2023-07-31T09:10:44;17.70;99.90
8858;DHT22;4465;50.904;4.696;2023-07-31T09:13:14;17.80;99.90
8858;DHT22;4465;50.904;4.696;2023-07-31T09:15:42;17.70;99.90
8858;DHT22;4465;50.904;4.696;2023-07-31T09:18:09;17.80;99.90
8858;DHT22;4465;50.904;4.696;2023-07-31T09:20:35;17.80;99.90
8858;DHT22;4465;50.904;4.696;2023-07-31T09:23:09;17.80;99.90
8858;DHT22;4465;50.904;4.696;2023-07-31T09:25:37;17.80;99.90
8858;DHT22;4465;50.904;4.696;2023-07-31T09:28:05;17.80;99.90
8858;DHT22;4465;50.904;4.696;2023-07-31T09:30:45;17.80;99.90
8858;DHT22;4465;50.904;4.696;2023-07-31T09:33:15;17.70;99.90
8858;DHT22;4465;50.904;4.696;2023-07-31T09:35:46;17.70;99.90
8858;DHT22;4465;50.904;4.696;2023-07-31T09:38:14;17.70;99.90
8858;DHT22;4465;50.904;4.696;2023-07-31T09:40:42;17.70;99.90
8858;DHT22;4465;50.904;4.696;2023-07-31T09:43:21;17.80;99.90
8858;DHT22;4465;50.904;4.696;2023-07-31T09:45:48;17.80;99.90
8858;DHT22;4465;50.904;4.696;2023-07-31T09:48:18;17.90;99.90
8858;DHT22;4465;50.904;4.696;2023-07-31T09:50:48;17.90;99.90
8858;DHT22;4465;50.904;4.696;2023-07-31T09:53:16;18.00;99.90
8858;DHT22;4465;50.904;4.696;2023-07-31T09:55:42;18.10;99.90
8858;DHT22;4465;50.904;4.696;2023-07-31T09:58:10;18.20;99.90
8858;DHT22;4465;50.904;4.696;2023-07-31T10:00:37;18.30;99.90
8858;DHT22;4465;50.904;4.696;2023-07-31T10:03:11;18.30;99.90
8858;DHT22;4465;50.904;4.696;2023-07-31T10:05:40;18.40;99.90
8858;DHT22;4465;50.904;4.696;2023-07-31T10:08:09;18.40;99.90
8858;DHT22;4465;50.904;4.696;2023-07-31T10:10:37;18.40;99.90
8858;DHT22;4465;50.904;4.696;2023-07-31T10:13:14;18.40;99.90
8858;DHT22;4465;50.904;4.696;2023-07-31T10:15:42;18.40;99.90
8858;DHT22;4465;50.904;4.696;2023-07-31T10:18:09;18.50;99.90
8858;DHT22;4465;50.904;4.696;2023-07-31T10:20:36;18.50;99.90
8858;DHT22;4465;50.904;4.696;2023-07-31T10:23:03;18.50;99.90
8858;DHT22;4465;50.904;4.696;2023-07-31T10:25:32;18.60;99.90
8858;DHT22;4465;50.904;4.696;2023-07-31T10:28:01;18.60;99.90
8858;DHT22;4465;50.904;4.696;2023-07-31T10:30:34;18.60;99.90
8858;DHT22;4465;50.904;4.696;2023-07-31T10:33:05;18.60;99.90
8858;DHT22;4465;50.904;4.696;2023-07-31T10:35:33;18.60;99.90
8858;DHT22;4465;50.904;4.696;2023-07-31T10:38:12;18.60;99.90
8858;DHT22;4465;50.904;4.696;2023-07-31T10:40:38;18.70;99.90
8858;DHT22;4465;50.904;4.696;2023-07-31T10:43:05;18.70;99.90
8858;DHT22;4465;50.904;4.696;2023-07-31T10:45:39;18.80;99.90
8858;DHT22;4465;50.904;4.696;2023-07-31T10:48:13;18.90;99.90
8858;DHT22;4465;50.904;4.696;2023-07-31T10:50:48;18.80;99.90
8858;DHT22;4465;50.904;4.696;2023-07-31T10:53:25;18.90;99.90
8858;DHT22;4465;50.904;4.696;2023-07-31T10:55:58;18.90;99.90
8858;DHT22;4465;50.904;4.696;2023-07-31T10:58:30;19.00;99.90
8858;DHT22;4465;50.904;4.696;2023-07-31T11:00:59;19.00;99.90
8858;DHT22;4465;50.904;4.696;2023-07-31T11:03:27;19.00;99.90
8858;DHT22;4465;50.904;4.696;2023-07-31T11:05:59;18.90;99.90
8858;DHT22;4465;50.904;4.696;2023-07-31T11:08:33;19.00;99.90
8858;DHT22;4465;50.904;4.696;2023-07-31T11:15:56;19.00;99.90
8858;DHT22;4465;50.904;4.696;2023-07-31T11:18:23;19.10;99.90
8858;DHT22;4465;50.904;4.696;2023-07-31T11:20:49;19.10;99.90
8858;DHT22;4465;50.904;4.696;2023-07-31T11:23:16;19.10;99.90
8858;DHT22;4465;50.904;4.696;2023-07-31T11:25:42;19.20;99.90
8858;DHT22;4465;50.904;4.696;2023-07-31T11:28:15;19.20;99.90
8858;DHT22;4465;50.904;4.696;2023-07-31T11:30:46;19.20;99.90
8858;DHT22;4465;50.904;4.696;2023-07-31T11:33:13;19.30;99.90
8858;DHT22;4465;50.904;4.696;2023-07-31T11:35:47;19.30;99.90
8858;DHT22;4465;50.904;4.696;2023-07-31T11:38:28;19.40;99.90
8858;DHT22;4465;50.904;4.696;2023-07-31T11:40:59;19.50;99.90
8858;DHT22;4465;50.904;4.696;2023-07-31T11:43:28;19.60;99.90
8858;DHT22;4465;50.904;4.696;2023-07-31T11:45:58;19.60;99.90
8858;DHT22;4465;50.904;4.696;2023-07-31T11:48:29;19.60;99.90
8858;DHT22;4465;50.904;4.696;2023-07-31T11:51:00;19.60;99.90
8858;DHT22;4465;50.904;4.696;2023-07-31T11:56:16;19.60;99.90
8858;DHT22;4465;50.904;4.696;2023-07-31T11:58:44;19.60;99.90
8858;DHT22;4465;50.904;4.696;2023-07-31T12:01:11;19.60;99.90
8858;DHT22;4465;50.904;4.696;2023-07-31T12:03:38;19.60;99.90
8858;DHT22;4465;50.904;4.696;2023-07-31T12:06:06;19.60;99.90
8858;DHT22;4465;50.904;4.696;2023-07-31T12:08:36;19.60;99.90
8858;DHT22;4465;50.904;4.696;2023-07-31T12:11:04;19.60;99.90
8858;DHT22;4465;50.904;4.696;2023-07-31T12:13:31;19.60;99.90
8858;DHT22;4465;50.904;4.696;2023-07-31T12:15:59;19.60;99.90
8858;DHT22;4465;50.904;4.696;2023-07-31T12:18:27;19.60;99.90
8858;DHT22;4465;50.904;4.696;2023-07-31T12:20:55;19.50;99.90
8858;DHT22;4465;50.904;4.696;2023-07-31T12:23:23;19.50;99.90
8858;DHT22;4465;50.904;4.696;2023-07-31T12:26:07;19.60;99.90
8858;DHT22;4465;50.904;4.696;2023-07-31T12:28:45;19.60;99.90
8858;DHT22;4465;50.904;4.696;2023-07-31T12:31:12;19.60;99.90
8858;DHT22;4465;50.904;4.696;2023-07-31T12:33:40;19.60;99.90
8858;DHT22;4465;50.904;4.696;2023-07-31T12:36:14;19.70;99.90
8858;DHT22;4465;50.904;4.696;2023-07-31T12:38:40;19.70;99.90
8858;DHT22;4465;50.904;4.696;2023-07-31T12:41:09;19.70;99.90
8858;DHT22;4465;50.904;4.696;2023-07-31T12:43:36;19.70;99.90
8858;DHT22;4465;50.904;4.696;2023-07-31T12:46:03;19.70;99.90
8858;DHT22;4465;50.904;4.696;2023-07-31T12:48:31;19.70;99.90
8858;DHT22;4465;50.904;4.696;2023-07-31T12:50:57;19.70;99.90
8858;DHT22;4465;50.904;4.696;2023-07-31T12:53:23;19.80;99.90
8858;DHT22;4465;50.904;4.696;2023-07-31T12:55:52;19.80;99.90
8858;DHT22;4465;50.904;4.696;2023-07-31T12:58:17;19.80;99.90
8858;DHT22;4465;50.904;4.696;2023-07-31T13:00:43;19.80;99.90
8858;DHT22;4465;50.904;4.696;2023-07-31T13:03:14;19.90;99.90
8858;DHT22;4465;50.904;4.696;2023-07-31T13:05:40;19.90;99.90
8858;DHT22;4465;50.904;4.696;2023-07-31T13:08:06;19.90;99.90
8858;DHT22;4465;50.904;4.696;2023-07-31T13:10:32;20.00;99.90
8858;DHT22;4465;50.904;4.696;2023-07-31T13:12:58;20.00;99.90
8858;DHT22;4465;50.904;4.696;2023-07-31T13:15:27;20.00;99.90
8858;DHT22;4465;50.904;4.696;2023-07-31T13:17:53;20.00;99.90
8858;DHT22;4465;50.904;4.696;2023-07-31T13:20:22;20.10;99.90
8858;DHT22;4465;50.904;4.696;2023-07-31T13:22:52;20.10;99.90
8858;DHT22;4465;50.904;4.696;2023-07-31T13:25:20;20.10;99.90
8858;DHT22;4465;50.904;4.696;2023-07-31T13:27:46;20.00;99.90
8858;DHT22;4465;50.904;4.696;2023-07-31T13:30:12;20.00;99.90
8858;DHT22;4465;50.904;4.696;2023-07-31T13:32:38;19.90;99.90
8858;DHT22;4465;50.904;4.696;2023-07-31T13:35:08;19.90;99.90
8858;DHT22;4465;50.904;4.696;2023-07-31T13:37:34;19.80;99.90
8858;DHT22;4465;50.904;4.696;2023-07-31T13:40:03;19.80;99.90
8858;DHT22;4465;50.904;4.696;2023-07-31T13:42:31;19.70;99.90
8858;DHT22;4465;50.904;4.696;2023-07-31T13:44:57;19.60;99.90
8858;DHT22;4465;50.904;4.696;2023-07-31T13:47:23;19.60;99.90
8858;DHT22;4465;50.904;4.696;2023-07-31T13:49:49;19.50;99.90
8858;DHT22;4465;50.904;4.696;2023-07-31T13:52:15;19.40;99.90
8858;DHT22;4465;50.904;4.696;2023-07-31T13:54:41;19.40;99.90
8858;DHT22;4465;50.904;4.696;2023-07-31T13:57:08;19.30;99.90
8858;DHT22;4465;50.904;4.696;2023-07-31T13:59:34;19.20;99.90
8858;DHT22;4465;50.904;4.696;2023-07-31T14:02:01;19.20;99.90
8858;DHT22;4465;50.904;4.696;2023-07-31T14:04:27;19.10;99.90
8858;DHT22;4465;50.904;4.696;2023-07-31T14:06:53;19.00;99.90
8858;DHT22;4465;50.904;4.696;2023-07-31T14:09:23;19.00;99.90
8858;DHT22;4465;50.904;4.696;2023-07-31T14:11:51;18.90;99.90
8858;DHT22;4465;50.904;4.696;2023-07-31T14:14:19;18.80;99.90
8858;DHT22;4465;50.904;4.696;2023-07-31T14:16:45;18.80;99.90
8858;DHT22;4465;50.904;4.696;2023-07-31T14:19:11;18.70;99.90
8858;DHT22;4465;50.904;4.696;2023-07-31T14:21:37;18.70;99.90
8858;DHT22;4465;50.904;4.696;2023-07-31T14:24:03;18.70;99.90
8858;DHT22;4465;50.904;4.696;2023-07-31T14:26:29;18.70;99.90
8858;DHT22;4465;50.904;4.696;2023-07-31T14:28:55;18.60;99.90
8858;DHT22;4465;50.904;4.696;2023-07-31T14:31:23;18.60;99.90
8858;DHT22;4465;50.904;4.696;2023-07-31T14:33:54;18.60;99.90
8858;DHT22;4465;50.904;4.696;2023-07-31T14:36:19;18.50;99.90
8858;DHT22;4465;50.904;4.696;2023-07-31T14:38:48;18.50;99.90
8858;DHT22;4465;50.904;4.696;2023-07-31T14:41:13;18.40;99.90
8858;DHT22;4465;50.904;4.696;2023-07-31T14:43:45;18.40;99.90
8858;DHT22;4465;50.904;4.696;2023-07-31T14:46:11;18.40;99.90
8858;DHT22;4465;50.904;4.696;2023-07-31T14:48:36;18.40;99.90
8858;DHT22;4465;50.904;4.696;2023-07-31T14:51:02;18.40;99.90
8858;DHT22;4465;50.904;4.696;2023-07-31T14:53:30;18.40;99.90
8858;DHT22;4465;50.904;4.696;2023-07-31T14:55:56;18.40;99.90
8858;DHT22;4465;50.904;4.696;2023-07-31T14:58:22;18.40;99.90
8858;DHT22;4465;50.904;4.696;2023-07-31T15:00:55;18.30;99.90
8858;DHT22;4465;50.904;4.696;2023-07-31T15:03:21;18.30;99.90
8858;DHT22;4465;50.904;4.696;2023-07-31T15:05:49;18.30;99.90
8858;DHT22;4465;50.904;4.696;2023-07-31T15:08:15;18.30;99.90
8858;DHT22;4465;50.904;4.696;2023-07-31T15:10:40;18.30;99.90
8858;DHT22;4465;50.904;4.696;2023-07-31T15:13:06;18.30;99.90
8858;DHT22;4465;50.904;4.696;2023-07-31T15:15:34;18.20;99.90
8858;DHT22;4465;50.904;4.696;2023-07-31T15:18:00;18.20;99.90
8858;DHT22;4465;50.904;4.696;2023-07-31T15:20:26;18.20;99.90
8858;DHT22;4465;50.904;4.696;2023-07-31T15:22:55;18.30;99.90
8858;DHT22;4465;50.904;4.696;2023-07-31T15:25:21;18.20;99.90
8858;DHT22;4465;50.904;4.696;2023-07-31T15:27:52;18.20;99.90
8858;DHT22;4465;50.904;4.696;2023-07-31T15:30:17;18.20;99.90
8858;DHT22;4465;50.904;4.696;2023-07-31T15:32:46;18.20;99.90
8858;DHT22;4465;50.904;4.696;2023-07-31T15:35:14;18.20;99.90
8858;DHT22;4465;50.904;4.696;2023-07-31T15:37:42;18.20;99.90
8858;DHT22;4465;50.904;4.696;2023-07-31T15:40:08;18.20;99.90
8858;DHT22;4465;50.904;4.696;2023-07-31T15:42:37;18.20;99.90
8858;DHT22;4465;50.904;4.696;2023-07-31T15:45:06;18.20;99.90
8858;DHT22;4465;50.904;4.696;2023-07-31T15:47:33;18.20;99.90
8858;DHT22;4465;50.904;4.696;2023-07-31T15:50:01;18.20;99.90
8858;DHT22;4465;50.904;4.696;2023-07-31T15:52:27;18.20;99.90
8858;DHT22;4465;50.904;4.696;2023-07-31T15:54:53;18.20;99.90
8858;DHT22;4465;50.904;4.696;2023-07-31T15:57:22;18.20;99.90
8858;DHT22;4465;50.904;4.696;2023-07-31T15:59:48;18.10;99.90
8858;DHT22;4465;50.904;4.696;2023-07-31T16:02:14;18.10;99.90
8858;DHT22;4465;50.904;4.696;2023-07-31T16:04:43;18.10;99.90
8858;DHT22;4465;50.904;4.696;2023-07-31T16:07:09;18.10;99.90
8858;DHT22;4465;50.904;4.696;2023-07-31T16:09:35;18.10;99.90
8858;DHT22;4465;50.904;4.696;2023-07-31T16:12:04;18.10;99.90
8858;DHT22;4465;50.904;4.696;2023-07-31T16:14:31;18.10;99.90
8858;DHT22;4465;50.904;4.696;2023-07-31T16:16:58;18.20;99.90
8858;DHT22;4465;50.904;4.696;2023-07-31T16:19:26;18.20;99.90
8858;DHT22;4465;50.904;4.696;2023-07-31T16:21:52;18.10;99.90
8858;DHT22;4465;50.904;4.696;2023-07-31T16:24:22;18.10;99.90